Flight Track Log - Related Links

Times and Time Zones

All times are in EDT time to prevent confusion due to time zone crossing. See the LBQ792 flight status page for this flight to view local times or setup timezone preferences in your user account.

Time Position Orientation Groundspeed Altitude Reporting Facility
EDT Latitude Longitude Course Direction KTS MPH feet Rate Location/Type
Mon 10:10:19 PM 43.1211 -76.1014 19° North 141 162 1,500  Level Boston Center
Mon 10:11:20 PM 43.1358 -76.1650 288° West 183 211 2,800 1,388 Climbing Boston Center
Mon 10:12:20 PM 43.1442 -76.2253 281° West 163 188 4,300 1,339 Climbing Boston Center
Mon 10:13:21 PM 43.1442 -76.2906 270° West 167 192 5,500 885 Climbing Boston Center
Mon 10:14:22 PM 43.1375 -76.3614 263° West 189 217 6,100 248 Climbing Boston Center
Mon 10:15:22 PM 43.1347 -76.4439 267° West 229 264 6,000 -117 Descending Boston Center
Mon 10:16:05 PM 43.1306 -76.5092 265° West 229 264 5,900 -90 Descending Cleveland Center
Mon 10:16:29 PM 43.1297 -76.5433 268° West 230 265 5,900  Level Cleveland Center
Mon 10:17:30 PM 43.1306 -76.6314 271° West 231 266 5,900  Level Cleveland Center
Mon 10:18:31 PM 43.1294 -76.7197 269° West 231 266 5,900  Level Cleveland Center
Mon 10:19:31 PM 43.1300 -76.8050 271° West 233 268 5,900  Level Cleveland Center
Mon 10:20:32 PM 43.1311 -76.9019 271° West 232 267 5,900  Level Cleveland Center
Mon 10:21:32 PM 43.1317 -76.9900 271° West 232 267 5,900  Level Cleveland Center
Mon 10:22:33 PM 43.1303 -77.0783 269° West 230 265 5,900 -98 Level Cleveland Center
Mon 10:23:34 PM 43.1286 -77.1636 268° West 228 262 5,700 -694 Descending Cleveland Center
Mon 10:24:34 PM 43.1253 -77.2550 267° West 235 270 4,500 -1,190 Descending Cleveland Center
Mon 10:25:35 PM 43.1275 -77.3431 272° West 237 273 3,300 -1,041 Descending Cleveland Center
Mon 10:26:35 PM 43.1322 -77.4311 274° West 236 272 2,400 -397 Descending Cleveland Center
Mon 10:27:36 PM 43.1283 -77.5194 267° West 211 243 2,500 -209 Climbing Cleveland Center
Mon 10:28:30 PM 43.1258 -77.5850 267° West 197 227 2,000 -887 Descending Cleveland Center
Mon 10:29:31 PM 43.1256 -77.6533 270° West 151 174 800 -1,180 Descending Cleveland Center
Mon 10:31:00 PM 43.1167 -77.6667 270° West  Level FlightAware Approximate
Mon 10:38:00 PM 43.1191 -77.6719 270° West  Level Estimated

Login

Don't have an account? Register now (free) for customized features, flight alerts, and more!